Time;durP1;ratioP1;P1;durP2;ratioP2;P2;SDS_P1;SDS_P2;PMS_P1;PMS_P2;Temp;Humidity;BMP_temperature;BMP_pressure;BME280_temperature;BME280_humidity;BME280_pressure;Samples;Min_cycle;Max_cycle;Signal;HPM_P1;HPM_P2
2022/06/24 00:00:10;;;;;;;3.88;1.90;;;20.20;99.90;;;;;;5067175;28;20027;-80
2022/06/24 00:02:38;;;;;;;6.85;3.97;;;20.20;99.90;;;;;;5077932;28;20028;-79
2022/06/24 00:05:14;;;;;;;6.45;3.30;;;20.10;99.90;;;;;;5061192;28;20372;-79
2022/06/24 00:07:45;;;;;;;2.85;2.53;;;20.00;99.90;;;;;;5062975;28;20035;-79
2022/06/24 00:10:14;;;;;;;3.28;2.17;;;19.90;99.90;;;;;;5060753;28;20044;-78
2022/06/24 00:12:40;;;;;;;4.28;2.75;;;19.90;99.90;;;;;;5060598;28;20059;-79
2022/06/24 00:15:08;;;;;;;4.03;3.53;;;19.90;99.90;;;;;;5061738;28;20028;-79
2022/06/24 00:17:35;;;;;;;6.05;3.45;;;19.80;99.90;;;;;;4999777;28;20048;-78
2022/06/24 00:20:09;;;;;;;6.85;3.80;;;19.80;99.90;;;;;;5048809;28;20028;-79
2022/06/24 00:22:52;;;;;;;5.45;4.57;;;19.80;99.90;;;;;;5058852;28;20013;-79
2022/06/24 00:25:20;;;;;;;5.88;4.13;;;19.80;99.90;;;;;;5059418;28;20044;-79
2022/06/24 00:28:07;;;;;;;6.65;5.07;;;19.80;99.90;;;;;;5063437;28;20053;-78
2022/06/24 00:30:42;;;;;;;5.90;4.55;;;19.80;99.90;;;;;;5077866;28;20025;-78
2022/06/24 00:33:11;;;;;;;4.53;3.95;;;19.80;99.90;;;;;;5044146;28;20056;-78
2022/06/24 00:35:39;;;;;;;6.00;4.25;;;19.80;99.90;;;;;;5064964;28;20384;-77
2022/06/24 00:38:27;;;;;;;9.25;5.05;;;19.80;99.90;;;;;;5063624;28;20017;-78
2022/06/24 00:41:02;;;;;;;6.68;4.88;;;19.80;99.90;;;;;;5061817;28;20028;-78
2022/06/24 00:43:35;;;;;;;6.15;5.45;;;19.80;99.90;;;;;;5076739;28;20036;-78
2022/06/24 00:46:24;;;;;;;6.78;4.93;;;19.80;99.90;;;;;;5063254;28;20028;-78
2022/06/24 00:48:56;;;;;;;8.60;5.22;;;19.80;99.90;;;;;;5061398;28;20024;-78
2022/06/24 00:51:30;;;;;;;5.82;5.25;;;19.80;99.90;;;;;;5077772;28;20037;-77
2022/06/24 00:53:58;;;;;;;7.32;5.78;;;19.80;99.90;;;;;;5078295;28;20041;-78
2022/06/24 00:56:26;;;;;;;8.77;5.95;;;19.80;99.90;;;;;;5062234;28;20020;-79
2022/06/24 00:58:57;;;;;;;5.00;4.53;;;19.90;99.90;;;;;;5023820;28;20056;-78
2022/06/24 01:01:29;;;;;;;5.05;4.07;;;19.90;99.90;;;;;;5033228;28;20024;-79
2022/06/24 01:03:57;;;;;;;5.50;5.00;;;19.90;99.90;;;;;;5041060;28;20031;-78
2022/06/24 01:06:30;;;;;;;14.05;6.82;;;19.90;99.90;;;;;;5046221;28;20619;-82
2022/06/24 01:08:57;;;;;;;9.57;6.03;;;19.90;99.90;;;;;;5041415;28;20704;-80
2022/06/24 01:11:24;;;;;;;8.57;5.95;;;19.90;99.90;;;;;;5060883;28;20028;-80
2022/06/24 01:13:51;;;;;;;7.50;5.32;;;19.90;99.90;;;;;;5046157;28;20052;-78
2022/06/24 01:16:21;;;;;;;7.13;6.28;;;19.80;99.90;;;;;;5060015;28;20033;-79
2022/06/24 01:18:56;;;;;;;5.82;4.90;;;19.80;99.90;;;;;;5044198;28;20399;-77
2022/06/24 01:21:34;;;;;;;10.05;7.63;;;19.70;99.90;;;;;;5044910;28;20036;-78
2022/06/24 01:24:17;;;;;;;8.73;7.47;;;19.70;99.90;;;;;;5045826;28;20024;-78
2022/06/24 01:26:47;;;;;;;6.90;6.18;;;19.80;99.90;;;;;;5047365;28;20035;-78
2022/06/24 01:29:17;;;;;;;9.40;7.95;;;19.80;99.90;;;;;;5077333;28;20029;-78
2022/06/24 01:31:48;;;;;;;10.82;8.35;;;19.80;99.90;;;;;;5042412;28;20028;-78
2022/06/24 01:34:16;;;;;;;8.45;7.10;;;19.80;99.90;;;;;;5029077;28;20032;-77
2022/06/24 01:36:42;;;;;;;10.88;6.40;;;19.80;99.90;;;;;;5063522;28;20372;-77
2022/06/24 01:39:09;;;;;;;9.00;6.97;;;19.90;99.90;;;;;;5059728;28;20040;-78
2022/06/24 01:41:36;;;;;;;9.15;7.97;;;19.80;99.90;;;;;;5029560;28;20032;-78
2022/06/24 01:44:02;;;;;;;9.52;8.65;;;19.80;99.90;;;;;;5061588;28;20032;-78
2022/06/24 01:46:29;;;;;;;9.57;7.80;;;19.70;99.90;;;;;;5029944;28;20033;-78
2022/06/24 01:48:57;;;;;;;6.80;6.10;;;19.70;99.90;;;;;;5059207;28;20024;-78
2022/06/24 01:51:25;;;;;;;9.55;8.07;;;19.70;99.90;;;;;;5065207;28;20020;-79
2022/06/24 01:53:52;;;;;;;10.80;8.32;;;19.60;99.90;;;;;;5062611;28;20040;-79
2022/06/24 01:56:20;;;;;;;7.93;6.32;;;19.60;99.90;;;;;;5063684;28;20029;-79
2022/06/24 01:58:48;;;;;;;6.97;5.72;;;19.50;99.90;;;;;;5059562;28;20048;-79
2022/06/24 02:01:32;;;;;;;7.20;5.90;;;19.50;99.90;;;;;;5077526;28;20033;-79
2022/06/24 02:03:59;;;;;;;8.13;5.65;;;19.50;99.90;;;;;;5064394;28;20028;-78
2022/06/24 02:06:32;;;;;;;5.88;5.28;;;19.40;99.90;;;;;;5048441;28;20368;-78
2022/06/24 02:13:26;;;;;;;6.80;4.63;;;19.40;99.90;;;;;;5058297;28;20027;-78
2022/06/24 02:15:18;;;;;;;6.93;5.25;;;19.50;99.90;;;;;;5078632;28;20044;-80
2022/06/24 02:17:47;;;;;;;11.93;6.30;;;19.50;99.90;;;;;;5077832;28;20487;-80
2022/06/24 02:20:22;;;;;;;9.45;5.82;;;19.50;99.90;;;;;;5069782;28;21451;-79
2022/06/24 02:22:59;;;;;;;3.72;3.42;;;19.50;99.90;;;;;;5060981;28;20037;-81
2022/06/24 02:25:30;;;;;;;5.97;4.93;;;19.50;99.90;;;;;;5065151;28;20349;-80
2022/06/24 02:27:58;;;;;;;12.65;7.35;;;19.60;99.90;;;;;;5063542;28;20036;-80
2022/06/24 02:30:42;;;;;;;8.27;5.45;;;19.50;99.90;;;;;;5059133;28;20401;-79
2022/06/24 02:33:12;;;;;;;8.27;7.45;;;19.50;99.90;;;;;;5044881;28;20028;-80
2022/06/24 02:35:41;;;;;;;6.57;5.93;;;19.50;99.90;;;;;;5059807;28;20250;-83
2022/06/24 02:38:08;;;;;;;6.03;3.97;;;19.50;99.90;;;;;;5064273;28;20486;-83
2022/06/24 02:40:47;;;;;;;5.13;4.05;;;19.40;99.90;;;;;;5077008;28;20032;-83
2022/06/24 02:43:18;;;;;;;3.58;3.10;;;19.40;99.90;;;;;;5048354;28;20025;-82
2022/06/24 02:45:53;;;;;;;3.97;3.25;;;19.30;99.90;;;;;;5061636;28;20040;-81
2022/06/24 02:48:24;;;;;;;3.03;2.72;;;19.30;99.90;;;;;;5062850;28;20032;-81
2022/06/24 02:50:56;;;;;;;2.35;1.83;;;19.20;99.90;;;;;;5061004;28;20029;-82
2022/06/24 02:53:26;;;;;;;2.00;1.05;;;19.00;99.90;;;;;;5078738;28;20498;-82
2022/06/24 02:55:55;;;;;;;3.13;1.45;;;18.80;99.90;;;;;;5061348;28;20047;-83
2022/06/24 02:58:22;;;;;;;2.35;1.55;;;18.70;99.90;;;;;;5059298;28;20036;-82
2022/06/24 03:00:48;;;;;;;2.95;1.35;;;18.60;99.90;;;;;;5059874;28;20033;-83
2022/06/24 03:03:17;;;;;;;3.45;1.10;;;18.50;99.90;;;;;;5018256;28;20033;-82
2022/06/24 03:05:45;;;;;;;3.03;1.20;;;18.50;99.90;;;;;;5081587;28;20035;-81
2022/06/24 03:08:13;;;;;;;3.58;1.30;;;18.40;99.90;;;;;;5082490;28;20028;-80
2022/06/24 03:10:40;;;;;;;2.22;1.55;;;18.30;99.90;;;;;;5079686;28;20135;-80
2022/06/24 03:13:07;;;;;;;2.63;2.00;;;18.30;99.90;;;;;;5065705;28;20043;-79
2022/06/24 03:15:34;;;;;;;2.35;1.90;;;18.30;99.90;;;;;;5064800;28;20032;-79
2022/06/24 03:18:00;;;;;;;3.25;1.80;;;18.30;99.90;;;;;;5061598;28;20052;-79
2022/06/24 03:20:28;;;;;;;2.53;1.80;;;18.30;99.90;;;;;;5019314;28;20041;-79
2022/06/24 03:22:55;;;;;;;3.05;1.90;;;18.30;99.90;;;;;;5052501;28;20035;-79
2022/06/24 03:25:24;;;;;;;4.10;2.17;;;18.30;99.90;;;;;;5078481;28;20029;-80
2022/06/24 03:27:51;;;;;;;2.63;1.60;;;18.30;99.90;;;;;;5030199;28;20039;-79
2022/06/24 03:30:17;;;;;;;2.40;2.05;;;18.30;99.90;;;;;;5016270;28;20045;-80
2022/06/24 03:32:44;;;;;;;3.38;2.05;;;18.30;99.90;;;;;;5061308;28;20307;-79
2022/06/24 03:35:11;;;;;;;2.83;1.92;;;18.30;99.90;;;;;;5063097;28;20388;-79
2022/06/24 03:37:37;;;;;;;3.45;1.60;;;18.20;99.90;;;;;;5020822;28;20024;-79
2022/06/24 03:40:04;;;;;;;3.97;1.80;;;18.20;99.90;;;;;;5043852;28;20043;-80
2022/06/24 03:42:31;;;;;;;3.85;1.67;;;18.10;99.90;;;;;;5033123;28;20043;-79
2022/06/24 03:44:57;;;;;;;4.28;1.77;;;18.10;99.90;;;;;;5062758;28;20025;-79
2022/06/24 03:47:24;;;;;;;2.70;1.40;;;18.10;99.90;;;;;;5055227;28;20039;-80
2022/06/24 03:49:53;;;;;;;4.20;1.58;;;18.10;99.90;;;;;;5035306;28;20044;-80
2022/06/24 03:52:20;;;;;;;3.60;1.42;;;18.10;99.90;;;;;;5034679;28;20040;-80
2022/06/24 03:54:47;;;;;;;2.10;1.00;;;18.00;99.90;;;;;;5049986;28;20085;-80
2022/06/24 03:57:13;;;;;;;3.17;1.40;;;18.00;99.90;;;;;;5046377;28;20037;-80
2022/06/24 03:59:40;;;;;;;4.35;1.35;;;18.00;99.90;;;;;;5063388;28;20035;-79
2022/06/24 04:02:06;;;;;;;2.78;1.40;;;17.90;99.90;;;;;;5065016;28;20036;-80
2022/06/24 04:04:33;;;;;;;2.65;1.20;;;17.90;99.90;;;;;;5044893;28;20415;-80
2022/06/24 04:06:59;;;;;;;3.70;1.23;;;17.90;99.90;;;;;;5070394;28;20515;-80
2022/06/24 04:09:28;;;;;;;1.90;1.10;;;17.90;99.90;;;;;;5044173;28;20052;-80
2022/06/24 04:11:58;;;;;;;3.85;1.45;;;17.90;99.90;;;;;;5051420;28;20036;-80
2022/06/24 04:17:09;;;;;;;2.38;1.10;;;17.90;99.90;;;;;;5062376;28;20039;-80
2022/06/24 04:19:36;;;;;;;4.95;1.30;;;17.90;99.90;;;;;;5067744;28;20020;-80
2022/06/24 04:22:05;;;;;;;2.22;1.05;;;17.90;99.90;;;;;;5082117;28;20033;-80
2022/06/24 04:24:32;;;;;;;2.60;1.17;;;17.90;99.90;;;;;;5062283;28;20041;-80
2022/06/24 04:26:58;;;;;;;3.97;1.63;;;17.90;99.90;;;;;;5065618;28;20044;-80
2022/06/24 04:29:28;;;;;;;3.10;1.20;;;17.90;99.90;;;;;;5044725;28;20032;-80
2022/06/24 04:31:55;;;;;;;2.88;1.77;;;17.90;99.90;;;;;;5066924;28;20043;-80
2022/06/24 04:34:22;;;;;;;3.53;1.80;;;17.90;99.90;;;;;;5061923;28;20044;-80
2022/06/24 04:36:48;;;;;;;3.78;1.60;;;17.80;99.90;;;;;;5051483;28;20049;-80
2022/06/24 04:39:15;;;;;;;2.85;1.30;;;17.90;99.90;;;;;;5043960;28;20036;-80
2022/06/24 04:41:44;;;;;;;3.10;1.73;;;17.80;99.90;;;;;;5060181;28;20055;-80
2022/06/24 04:44:10;;;;;;;2.00;1.23;;;17.80;99.90;;;;;;5059855;28;20037;-80
2022/06/24 04:46:36;;;;;;;3.17;1.63;;;17.80;99.90;;;;;;5059156;28;20037;-80
2022/06/24 04:49:03;;;;;;;2.60;1.30;;;17.90;99.90;;;;;;5023640;28;20029;-79
2022/06/24 04:51:29;;;;;;;4.13;1.52;;;17.90;99.90;;;;;;5059763;28;20025;-80
2022/06/24 04:53:56;;;;;;;2.22;1.63;;;17.90;99.90;;;;;;5031955;28;20048;-81
2022/06/24 04:56:28;;;;;;;1.90;1.20;;;18.00;99.90;;;;;;5036782;28;20467;-81
2022/06/24 04:59:01;;;;;;;2.70;1.25;;;18.00;99.90;;;;;;5064052;28;20040;-81
2022/06/24 05:01:29;;;;;;;2.53;1.05;;;18.00;99.90;;;;;;5079657;28;20060;-80
2022/06/24 05:04:05;;;;;;;2.20;1.20;;;18.10;99.90;;;;;;5080080;28;20040;-81
2022/06/24 05:06:33;;;;;;;2.08;1.33;;;18.10;99.90;;;;;;5044275;28;20115;-81
2022/06/24 05:08:59;;;;;;;3.47;1.08;;;18.10;99.90;;;;;;5059471;28;20036;-81
2022/06/24 05:11:28;;;;;;;3.92;1.40;;;18.10;99.90;;;;;;5042988;28;20040;-81
2022/06/24 05:13:56;;;;;;;3.05;1.40;;;18.10;99.90;;;;;;5078775;28;20035;-82
2022/06/24 05:16:22;;;;;;;3.42;1.38;;;18.20;99.90;;;;;;5051759;28;20036;-82
2022/06/24 05:18:49;;;;;;;3.88;1.25;;;18.10;99.90;;;;;;5058056;28;20119;-82
2022/06/24 05:21:15;;;;;;;2.80;1.40;;;18.10;99.90;;;;;;5065382;28;20048;-81
2022/06/24 05:23:43;;;;;;;2.05;1.23;;;18.10;99.90;;;;;;5036045;28;20029;-82
2022/06/24 05:26:09;;;;;;;3.63;1.38;;;18.10;99.90;;;;;;5079672;28;20032;-82
2022/06/24 05:28:37;;;;;;;3.22;1.50;;;18.20;99.90;;;;;;5050566;28;21329;-81
2022/06/24 05:31:04;;;;;;;2.67;1.60;;;18.10;99.90;;;;;;5031237;28;20037;-81
2022/06/24 05:33:33;;;;;;;3.63;1.77;;;18.20;99.90;;;;;;5044236;28;20044;-81
2022/06/24 05:36:02;;;;;;;4.47;1.85;;;18.20;99.90;;;;;;5062995;28;20044;-81
2022/06/24 05:38:30;;;;;;;2.78;2.20;;;18.20;99.90;;;;;;5062332;28;20041;-81
2022/06/24 05:41:06;;;;;;;3.30;1.52;;;18.20;99.90;;;;;;5061433;28;20036;-80
2022/06/24 05:43:36;;;;;;;3.17;1.48;;;18.20;99.90;;;;;;5066561;28;20044;-80
2022/06/24 05:46:03;;;;;;;2.65;1.60;;;18.30;99.90;;;;;;5063645;28;20471;-80
2022/06/24 05:48:33;;;;;;;3.35;1.60;;;18.30;99.90;;;;;;5049032;28;20861;-80
2022/06/24 05:51:06;;;;;;;1.95;1.35;;;18.30;99.90;;;;;;5062091;28;20037;-81
2022/06/24 05:56:24;;;;;;;2.63;1.45;;;18.40;99.90;;;;;;5046412;28;20044;-81
2022/06/24 05:58:51;;;;;;;3.17;1.45;;;18.40;99.90;;;;;;5057303;28;20044;-80
2022/06/24 06:01:18;;;;;;;2.53;0.98;;;18.50;99.90;;;;;;5047277;28;20029;-80
2022/06/24 06:03:45;;;;;;;1.95;1.27;;;18.50;99.90;;;;;;5046267;28;20020;-80
2022/06/24 06:06:11;;;;;;;2.20;1.42;;;18.60;99.90;;;;;;5031695;28;20471;-80
2022/06/24 06:08:39;;;;;;;3.50;2.78;;;18.60;99.90;;;;;;5016139;28;20036;-80
2022/06/24 06:11:20;;;;;;;4.72;2.00;;;18.60;99.90;;;;;;5061415;28;20043;-80
2022/06/24 06:13:48;;;;;;;5.63;2.25;;;18.60;99.90;;;;;;5046887;28;20032;-80
2022/06/24 06:16:15;;;;;;;4.35;2.55;;;18.70;99.90;;;;;;5045635;28;20037;-81
2022/06/24 06:18:41;;;;;;;4.00;2.20;;;18.70;99.90;;;;;;5047168;28;20476;-80
2022/06/24 06:21:09;;;;;;;3.72;2.53;;;18.70;99.90;;;;;;5062432;28;20032;-81
2022/06/24 06:23:37;;;;;;;2.92;1.77;;;18.70;99.90;;;;;;5032404;28;20029;-80
2022/06/24 06:26:05;;;;;;;6.13;2.70;;;18.70;99.90;;;;;;5050841;28;20052;-81
2022/06/24 06:28:32;;;;;;;3.25;2.25;;;18.70;99.90;;;;;;5058723;28;21594;-81
2022/06/24 06:30:59;;;;;;;2.80;1.50;;;18.70;99.90;;;;;;5046861;28;20039;-81
2022/06/24 06:33:26;;;;;;;2.60;1.40;;;18.70;99.90;;;;;;5041342;28;20051;-81
2022/06/24 06:36:03;;;;;;;3.20;1.75;;;18.70;99.90;;;;;;5063232;28;20053;-81
2022/06/24 06:38:30;;;;;;;3.60;1.55;;;18.70;99.90;;;;;;5056931;28;20053;-81
2022/06/24 06:40:57;;;;;;;3.97;1.80;;;18.70;99.90;;;;;;5044780;28;20044;-80
2022/06/24 06:43:23;;;;;;;3.17;2.20;;;18.70;99.90;;;;;;5078362;28;20024;-80
2022/06/24 06:45:51;;;;;;;2.58;1.88;;;18.70;99.90;;;;;;5026516;28;20385;-80
2022/06/24 06:48:17;;;;;;;3.42;1.75;;;18.80;99.90;;;;;;5013574;28;20032;-81
2022/06/24 06:50:43;;;;;;;3.08;2.00;;;18.90;99.90;;;;;;5056572;28;20040;-79
2022/06/24 06:53:10;;;;;;;3.05;2.17;;;18.90;99.90;;;;;;5074513;28;20037;-80
2022/06/24 06:55:36;;;;;;;4.28;2.20;;;18.90;99.90;;;;;;5033978;28;20503;-79
2022/06/24 06:58:06;;;;;;;4.65;2.47;;;18.90;99.90;;;;;;5075293;28;20411;-82
2022/06/24 07:00:35;;;;;;;2.92;2.17;;;19.00;99.90;;;;;;5074860;28;20033;-81
2022/06/24 07:03:01;;;;;;;3.03;2.15;;;19.00;99.90;;;;;;5054415;28;20036;-80
2022/06/24 07:05:31;;;;;;;5.00;3.10;;;19.10;99.90;;;;;;5053978;28;20024;-80
2022/06/24 07:07:58;;;;;;;6.32;4.07;;;19.10;99.90;;;;;;5049122;28;20033;-80
2022/06/24 07:10:27;;;;;;;4.55;3.70;;;19.20;99.90;;;;;;5034364;28;20392;-80
2022/06/24 07:12:57;;;;;;;3.50;3.00;;;19.20;99.90;;;;;;5058386;28;20059;-80
2022/06/24 07:15:23;;;;;;;3.70;2.58;;;19.20;99.90;;;;;;5067527;28;20152;-80
2022/06/24 07:17:52;;;;;;;3.60;3.30;;;19.20;99.90;;;;;;5050854;28;20037;-80
2022/06/24 07:20:18;;;;;;;4.57;2.20;;;19.20;99.90;;;;;;5047928;28;20029;-79
2022/06/24 07:22:46;;;;;;;4.20;2.33;;;19.20;99.90;;;;;;5041806;28;20716;-80
2022/06/24 07:25:15;;;;;;;3.30;2.22;;;19.30;99.90;;;;;;5052069;28;20036;-79
2022/06/24 07:27:43;;;;;;;3.67;2.00;;;19.30;99.90;;;;;;5049345;28;20045;-78
2022/06/24 07:30:17;;;;;;;5.03;3.45;;;19.30;99.90;;;;;;5046681;28;20041;-79
2022/06/24 07:32:51;;;;;;;3.67;2.50;;;19.30;99.90;;;;;;5048887;28;20044;-79
2022/06/24 07:35:25;;;;;;;3.63;2.67;;;19.30;99.90;;;;;;5016280;28;20045;-79
2022/06/24 07:37:55;;;;;;;3.42;2.50;;;19.30;99.90;;;;;;5050522;28;20028;-79
2022/06/24 07:40:29;;;;;;;3.25;2.10;;;19.20;99.90;;;;;;5049531;28;20111;-80
2022/06/24 07:42:58;;;;;;;4.32;2.05;;;19.20;99.90;;;;;;5048884;28;20043;-79
2022/06/24 07:45:39;;;;;;;3.33;2.47;;;19.20;99.90;;;;;;5073013;28;20380;-79
2022/06/24 07:48:11;;;;;;;4.03;2.10;;;19.10;99.90;;;;;;5073341;28;20029;-79
2022/06/24 07:50:39;;;;;;;3.72;1.88;;;19.10;99.90;;;;;;5055106;28;20037;-79
2022/06/24 07:53:16;;;;;;;3.65;2.75;;;19.20;99.90;;;;;;5053071;28;20065;-80
2022/06/24 07:58:27;;;;;;;2.60;1.65;;;19.20;99.90;;;;;;5064832;28;20041;-77
2022/06/24 08:01:02;;;;;;;3.05;1.80;;;19.20;99.90;;;;;;5031117;28;20107;-80
2022/06/24 08:03:28;;;;;;;4.07;2.63;;;19.30;99.90;;;;;;5060185;28;20392;-77
2022/06/24 08:05:57;;;;;;;4.38;2.65;;;19.30;99.90;;;;;;5070820;28;20036;-78
2022/06/24 08:08:23;;;;;;;3.15;2.83;;;19.30;99.90;;;;;;5071740;28;20036;-78
2022/06/24 08:10:50;;;;;;;4.07;2.72;;;19.30;99.90;;;;;;5068095;28;20044;-79
2022/06/24 08:13:16;;;;;;;5.60;3.83;;;19.40;99.90;;;;;;5040047;28;20147;-79
2022/06/24 08:15:43;;;;;;;4.00;3.60;;;19.40;99.90;;;;;;5065882;28;20035;-79
2022/06/24 08:18:09;;;;;;;3.28;2.90;;;19.40;99.90;;;;;;5065892;28;20037;-78
2022/06/24 08:20:36;;;;;;;4.55;3.72;;;19.50;99.90;;;;;;5060080;28;20059;-79
2022/06/24 08:23:02;;;;;;;6.55;4.70;;;19.50;99.90;;;;;;5037638;28;20025;-78
2022/06/24 08:25:32;;;;;;;4.90;4.43;;;19.50;99.90;;;;;;5057689;28;20499;-78
2022/06/24 08:28:04;;;;;;;5.63;3.22;;;19.50;99.90;;;;;;5056045;28;20044;-78
2022/06/24 08:30:31;;;;;;;4.25;2.85;;;19.50;99.90;;;;;;5060474;28;20705;-79
2022/06/24 08:33:02;;;;;;;6.22;4.82;;;19.50;99.90;;;;;;5064500;28;20031;-77
2022/06/24 08:35:29;;;;;;;4.47;4.03;;;19.60;99.90;;;;;;5061904;28;20045;-79
2022/06/24 08:37:56;;;;;;;9.10;8.18;;;19.60;99.90;;;;;;5065657;28;20025;-79
2022/06/24 08:40:27;;;;;;;7.45;6.75;;;19.70;99.90;;;;;;5059525;28;20490;-79
2022/06/24 08:42:56;;;;;;;6.05;5.55;;;19.80;99.90;;;;;;5045996;28;20032;-78
2022/06/24 08:45:26;;;;;;;5.38;4.53;;;20.00;99.90;;;;;;5077420;28;20037;-78
2022/06/24 08:47:54;;;;;;;4.35;3.95;;;20.20;99.90;;;;;;5063201;28;20098;-79
2022/06/24 08:50:23;;;;;;;7.07;5.07;;;20.30;99.90;;;;;;5023315;28;20037;-79
2022/06/24 08:52:53;;;;;;;6.68;5.97;;;20.50;99.90;;;;;;5058315;28;20043;-80
2022/06/24 08:55:20;;;;;;;8.70;5.88;;;20.60;99.90;;;;;;5061384;28;20388;-79
2022/06/24 08:57:47;;;;;;;4.35;3.95;;;20.80;99.90;;;;;;5059349;28;20036;-78
2022/06/24 09:00:14;;;;;;;6.28;5.55;;;20.90;99.90;;;;;;5042230;28;20029;-78
2022/06/24 09:02:43;;;;;;;8.98;8.10;;;21.00;99.90;;;;;;5062330;28;20036;-78
2022/06/24 09:05:12;;;;;;;8.38;7.63;;;21.10;99.90;;;;;;5058420;28;20040;-78
2022/06/24 09:07:39;;;;;;;8.05;7.35;;;21.30;99.90;;;;;;5046022;28;20526;-78
2022/06/24 09:10:12;;;;;;;6.65;6.05;;;21.40;99.90;;;;;;5058850;28;20468;-78
2022/06/24 09:12:46;;;;;;;8.00;7.22;;;21.40;99.90;;;;;;5061029;28;20036;-78
2022/06/24 09:15:14;;;;;;;6.78;6.18;;;21.40;99.90;;;;;;5060841;28;20033;-78
2022/06/24 09:17:44;;;;;;;8.35;6.78;;;21.50;99.90;;;;;;5044121;28;20029;-78
2022/06/24 09:20:14;;;;;;;7.05;6.43;;;21.60;99.90;;;;;;5076315;28;20025;-76
2022/06/24 09:22:42;;;;;;;6.82;6.13;;;21.70;99.90;;;;;;5058698;28;20032;-78
2022/06/24 09:25:09;;;;;;;6.63;6.13;;;21.80;99.90;;;;;;5032994;28;20020;-78
2022/06/24 09:27:45;;;;;;;5.93;5.38;;;21.90;99.90;;;;;;5058532;28;20029;-77
2022/06/24 09:30:33;;;;;;;7.20;6.38;;;22.00;99.90;;;;;;5059345;28;20043;-78
2022/06/24 09:33:05;;;;;;;5.10;4.65;;;22.10;99.90;;;;;;5057041;28;20021;-77
2022/06/24 09:35:36;;;;;;;5.22;4.80;;;22.30;99.90;;;;;;5025599;28;20510;-80
2022/06/24 09:38:03;;;;;;;6.45;4.68;;;22.40;99.90;;;;;;5047348;28;20353;-81
2022/06/24 09:40:32;;;;;;;4.82;4.45;;;22.50;99.90;;;;;;5047348;28;20037;-80
2022/06/24 09:43:13;;;;;;;4.78;4.38;;;22.70;99.90;;;;;;5050918;28;20036;-81
2022/06/24 09:45:51;;;;;;;4.25;3.85;;;22.80;99.90;;;;;;5049044;28;20384;-83
2022/06/24 09:48:32;;;;;;;5.35;4.15;;;22.90;99.90;;;;;;5062817;28;20033;-82
2022/06/24 09:51:08;;;;;;;8.10;4.72;;;22.80;99.90;;;;;;5045463;28;20028;-77
2022/06/24 09:53:37;;;;;;;4.95;4.47;;;22.80;99.90;;;;;;5077518;28;20048;-78
2022/06/24 09:56:07;;;;;;;7.65;4.43;;;22.70;99.90;;;;;;5060178;28;20028;-80
2022/06/24 09:58:35;;;;;;;5.35;4.85;;;22.70;99.90;;;;;;5033357;28;20037;-80
2022/06/24 10:01:03;;;;;;;3.28;2.97;;;22.60;99.90;;;;;;5050072;28;20044;-81
2022/06/24 10:03:30;;;;;;;4.40;4.00;;;22.60;99.90;;;;;;5023999;28;20040;-81
2022/06/24 10:06:09;;;;;;;6.03;5.43;;;22.60;99.90;;;;;;5026582;28;20052;-79
2022/06/24 10:08:36;;;;;;;6.80;6.15;;;22.70;99.90;;;;;;5021628;28;20410;-77
2022/06/24 10:11:07;;;;;;;4.50;4.10;;;22.70;99.90;;;;;;5057889;28;20028;-78
2022/06/24 10:13:35;;;;;;;6.45;5.72;;;22.70;99.90;;;;;;5050395;28;20040;-81
2022/06/24 10:16:06;;;;;;;6.07;5.43;;;22.60;99.90;;;;;;5009930;28;20041;-83
2022/06/24 10:18:39;;;;;;;6.13;5.07;;;22.50;99.90;;;;;;5043188;28;20037;-84
2022/06/24 10:21:08;;;;;;;6.63;5.97;;;22.40;99.90;;;;;;5074270;28;20048;-81
2022/06/24 10:23:46;;;;;;;7.57;6.88;;;22.40;99.90;;;;;;5053317;28;20033;-82
2022/06/24 10:26:18;;;;;;;6.85;6.28;;;22.30;99.90;;;;;;5054294;28;20048;-80
2022/06/24 10:28:57;;;;;;;;;;;22.40;99.90;;;;;;5043407;28;20068;-82
2022/06/24 10:31:51;;;;;;;8.10;7.22;;;22.40;99.90;;;;;;5042418;28;19928;-83
2022/06/24 10:34:30;;;;;;;7.35;6.68;;;22.50;99.90;;;;;;5058803;28;20041;-79
2022/06/24 10:37:01;;;;;;;8.73;8.02;;;22.60;99.90;;;;;;5070192;28;20044;-84
2022/06/24 10:39:29;;;;;;;6.20;5.63;;;22.80;99.90;;;;;;5029776;28;20063;-80
2022/06/24 10:41:59;;;;;;;8.32;7.53;;;23.10;99.90;;;;;;5048062;28;20048;-78
2022/06/24 10:44:28;;;;;;;8.18;7.47;;;23.30;99.90;;;;;;5041091;28;20059;-78
2022/06/24 10:47:04;;;;;;;9.52;8.63;;;23.50;99.90;;;;;;5029566;28;20049;-79
2022/06/24 10:52:32;;;;;;;9.43;8.52;;;23.80;99.90;;;;;;5039398;28;20380;-80
2022/06/24 10:55:17;;;;;;;10.73;9.82;;;23.90;99.90;;;;;;5048704;28;21572;-80
2022/06/24 10:58:13;;;;;;;9.70;8.90;;;23.90;99.90;;;;;;5049210;28;20029;-80
2022/06/24 11:03:43;;;;;;;6.85;6.18;;;24.00;99.90;;;;;;5040988;28;20721;-80
2022/06/24 11:06:16;;;;;;;6.70;6.10;;;24.30;99.90;;;;;;5054454;28;20598;-81
2022/06/24 11:08:43;;;;;;;9.25;7.45;;;24.70;99.90;;;;;;5038080;28;20083;-80
2022/06/24 11:11:09;;;;;;;9.02;8.07;;;24.90;99.90;;;;;;5050330;28;20408;-75
2022/06/24 11:13:36;;;;;;;8.60;7.90;;;25.10;99.90;;;;;;5044774;28;20017;-75
2022/06/24 11:16:02;;;;;;;6.88;6.18;;;25.40;99.90;;;;;;5067351;28;20196;-75
2022/06/24 11:18:32;;;;;;;7.03;6.40;;;25.60;99.90;;;;;;5053861;28;20031;-75
2022/06/24 11:21:01;;;;;;;4.30;3.97;;;25.60;99.90;;;;;;5040405;28;20024;-75
2022/06/24 11:23:30;;;;;;;6.10;5.60;;;25.80;99.90;;;;;;5054958;28;20120;-75
2022/06/24 11:26:04;;;;;;;4.97;4.03;;;26.00;99.90;;;;;;5058694;28;20452;-75
2022/06/24 11:28:34;;;;;;;6.22;5.65;;;26.20;99.90;;;;;;5057349;28;20025;-75
2022/06/24 11:31:27;;;;;;;4.45;4.13;;;26.50;99.90;;;;;;5060425;28;20012;-75
2022/06/24 11:34:03;;;;;;;3.83;3.30;;;26.70;99.90;;;;;;5055452;28;21330;-75
2022/06/24 11:36:41;;;;;;;3.30;3.00;;;27.10;99.90;;;;;;5050330;28;20036;-75
2022/06/24 11:39:10;;;;;;;3.90;3.60;;;27.70;99.90;;;;;;5046310;28;20025;-75
2022/06/24 11:41:40;;;;;;;3.42;2.55;;;28.10;99.90;;;;;;5052506;28;20029;-75
2022/06/24 11:44:07;;;;;;;3.75;3.45;;;28.30;99.90;;;;;;5051584;28;21034;-75
2022/06/24 11:46:38;;;;;;;4.30;3.10;;;28.10;99.90;;;;;;5033110;28;20600;-76
2022/06/24 11:49:14;;;;;;;3.78;3.47;;;27.90;99.90;;;;;;5052653;28;20064;-76
2022/06/24 11:51:46;;;;;;;3.10;2.80;;;27.90;99.90;;;;;;5055304;28;20045;-74
2022/06/24 11:54:12;;;;;;;2.92;2.45;;;28.50;99.90;;;;;;5049641;28;20471;-76
2022/06/24 11:56:41;;;;;;;2.40;1.88;;;29.20;99.90;;;;;;5033853;28;20333;-77
2022/06/24 11:59:08;;;;;;;2.50;1.95;;;29.80;99.90;;;;;;5019055;28;20040;-77
2022/06/24 12:01:38;;;;;;;2.45;1.90;;;30.00;99.90;;;;;;5045874;28;20044;-77
2022/06/24 12:04:10;;;;;;;2.22;1.60;;;29.50;99.90;;;;;;5035017;28;20033;-76
2022/06/24 12:06:38;;;;;;;3.30;1.42;;;28.70;99.90;;;;;;5048560;28;20035;-77
2022/06/24 12:09:05;;;;;;;2.13;1.23;;;27.90;99.90;;;;;;5045590;28;20028;-77
2022/06/24 12:11:40;;;;;;;2.53;1.30;;;27.10;99.90;;;;;;5046303;28;20029;-77
2022/06/24 12:14:09;;;;;;;2.92;2.47;;;26.40;99.90;;;;;;5053254;28;20044;-77
2022/06/24 12:16:56;;;;;;;6.88;4.88;;;25.70;99.90;;;;;;5062574;28;20029;-77
2022/06/24 12:19:34;;;;;;;6.90;5.05;;;24.90;99.90;;;;;;5033431;28;20929;-79
2022/06/24 12:22:10;;;;;;;7.22;6.63;;;23.80;99.90;;;;;;5019770;28;20044;-78
2022/06/24 12:24:37;;;;;;;6.38;5.57;;;23.10;99.90;;;;;;5046806;28;20020;-78
2022/06/24 12:27:06;;;;;;;7.50;6.90;;;22.70;99.90;;;;;;5046521;28;20053;-78
2022/06/24 12:29:41;;;;;;;5.00;4.60;;;22.50;99.90;;;;;;5067386;28;20024;-78
2022/06/24 12:32:08;;;;;;;3.38;2.63;;;22.30;99.90;;;;;;5035889;28;20052;-78
2022/06/24 12:34:40;;;;;;;3.75;3.45;;;22.10;99.90;;;;;;5051285;28;20032;-78
2022/06/24 12:37:11;;;;;;;3.42;2.00;;;22.20;99.90;;;;;;5025573;28;20990;-77
2022/06/24 12:39:47;;;;;;;2.63;2.42;;;22.50;99.90;;;;;;5053764;28;20491;-77
2022/06/24 12:42:17;;;;;;;2.88;2.67;;;23.20;99.90;;;;;;5058839;28;20100;-77
2022/06/24 12:44:47;;;;;;;3.50;3.30;;;24.00;99.90;;;;;;5052084;28;20463;-78
2022/06/24 12:53:00;;;;;;;1.40;1.00;;;27.10;99.90;;;;;;5064306;28;20017;-76
2022/06/24 12:55:52;;;;;;;3.22;1.20;;;28.10;99.90;;;;;;5045881;28;20464;-77
2022/06/24 12:58:19;;;;;;;1.40;0.98;;;29.00;99.90;;;;;;5036936;28;20048;-76
2022/06/24 13:00:48;;;;;;;2.22;1.55;;;29.60;99.90;;;;;;5045715;28;20126;-76
2022/06/24 13:03:20;;;;;;;1.48;0.98;;;29.50;99.90;;;;;;5033114;28;20048;-76
2022/06/24 13:05:47;;;;;;;2.50;1.42;;;28.80;99.90;;;;;;5052151;28;20044;-76
2022/06/24 13:08:15;;;;;;;1.70;1.30;;;28.30;99.90;;;;;;5061571;28;20625;-76
2022/06/24 13:10:42;;;;;;;2.22;1.60;;;28.20;99.90;;;;;;5043817;28;20037;-76
2022/06/24 13:13:12;;;;;;;2.03;1.25;;;28.50;99.90;;;;;;5045914;28;20039;-76
2022/06/24 13:15:40;;;;;;;2.80;0.80;;;29.40;99.90;;;;;;5061814;28;20021;-76
2022/06/24 13:18:06;;;;;;;1.48;1.20;;;30.10;99.90;;;;;;5061267;28;20416;-80
2022/06/24 13:20:33;;;;;;;2.35;1.20;;;30.20;99.90;;;;;;5043435;28;20024;-81
2022/06/24 13:23:00;;;;;;;1.40;1.05;;;30.40;99.90;;;;;;5036007;28;20076;-81
2022/06/24 13:25:29;;;;;;;1.20;0.98;;;30.40;99.90;;;;;;5069791;28;20025;-80